Portsoy, United Kingdom
Current Conditions -  °F | °C
As of 9:50 PM on Friday 19 Dec 2014 (Local Time) from EGQS Reporting Station
Broken Clouds Broken Clouds  
Wind Chill: 23°   Ceiling: 6000
Heat Index: 36°   Visibility: 6mi
Dew Point: 34°   Wind: 25mph
Humidity: 93%   Direction: 240°WSW
Pressure: 29.53"   Gusts: NA
Location:  57.68°N, 2.69°W
Report Text: EGQS 192150Z 24022KT 9999 FEW015 BKN060 02/01 Q1000 BLU
Loading
Personal Weather Stations






























Interactive Weather Map New forecast layout! Learn more

10-Day Weather Forecast

Advertisements
Track Severe Weather on mobile